sensor_id;sensor_type;location;lat;lon;timestamp;P1;durP1;ratioP1;P2;durP2;ratioP2
13244;SDS011;6689;53.400;12.486;2023-08-07T00:02:07;5.93;;;3.53;;
13244;SDS011;6689;53.400;12.486;2023-08-07T00:04:35;5.78;;;3.58;;
13244;SDS011;6689;53.400;12.486;2023-08-07T00:07:02;5.43;;;3.50;;
13244;SDS011;6689;53.400;12.486;2023-08-07T00:09:30;4.53;;;3.20;;
13244;SDS011;6689;53.400;12.486;2023-08-07T00:11:58;4.15;;;3.00;;
13244;SDS011;6689;53.400;12.486;2023-08-07T00:14:26;5.65;;;3.72;;
13244;SDS011;6689;53.400;12.486;2023-08-07T00:16:55;7.15;;;3.60;;
13244;SDS011;6689;53.400;12.486;2023-08-07T00:19:22;8.20;;;3.63;;
13244;SDS011;6689;53.400;12.486;2023-08-07T00:21:50;8.20;;;3.70;;
13244;SDS011;6689;53.400;12.486;2023-08-07T00:24:17;5.57;;;3.83;;
13244;SDS011;6689;53.400;12.486;2023-08-07T00:26:44;5.43;;;3.55;;
13244;SDS011;6689;53.400;12.486;2023-08-07T00:29:13;5.47;;;4.03;;
13244;SDS011;6689;53.400;12.486;2023-08-07T00:31:40;5.47;;;3.22;;
13244;SDS011;6689;53.400;12.486;2023-08-07T00:34:09;7.47;;;3.85;;
13244;SDS011;6689;53.400;12.486;2023-08-07T00:36:36;5.82;;;3.35;;
13244;SDS011;6689;53.400;12.486;2023-08-07T00:39:04;4.53;;;3.10;;
13244;SDS011;6689;53.400;12.486;2023-08-07T00:41:32;7.00;;;3.58;;
13244;SDS011;6689;53.400;12.486;2023-08-07T00:44:00;6.50;;;4.05;;
13244;SDS011;6689;53.400;12.486;2023-08-07T00:46:29;10.43;;;3.58;;
13244;SDS011;6689;53.400;12.486;2023-08-07T00:48:58;5.78;;;3.83;;
13244;SDS011;6689;53.400;12.486;2023-08-07T00:51:27;6.07;;;3.50;;
13244;SDS011;6689;53.400;12.486;2023-08-07T00:53:55;6.78;;;3.83;;
13244;SDS011;6689;53.400;12.486;2023-08-07T00:56:23;5.97;;;3.55;;
13244;SDS011;6689;53.400;12.486;2023-08-07T00:58:50;4.30;;;3.50;;
13244;SDS011;6689;53.400;12.486;2023-08-07T01:01:18;5.03;;;3.17;;
13244;SDS011;6689;53.400;12.486;2023-08-07T01:03:49;5.88;;;3.28;;
13244;SDS011;6689;53.400;12.486;2023-08-07T01:06:18;8.75;;;3.45;;
13244;SDS011;6689;53.400;12.486;2023-08-07T01:08:47;8.13;;;3.33;;
13244;SDS011;6689;53.400;12.486;2023-08-07T01:11:18;7.47;;;3.35;;
13244;SDS011;6689;53.400;12.486;2023-08-07T01:13:54;5.13;;;3.67;;
13244;SDS011;6689;53.400;12.486;2023-08-07T01:16:28;6.35;;;3.95;;
13244;SDS011;6689;53.400;12.486;2023-08-07T01:19:00;8.07;;;3.75;;
13244;SDS011;6689;53.400;12.486;2023-08-07T01:21:32;5.63;;;3.53;;
13244;SDS011;6689;53.400;12.486;2023-08-07T01:24:01;6.00;;;4.07;;
13244;SDS011;6689;53.400;12.486;2023-08-07T01:26:28;6.32;;;3.58;;
13244;SDS011;6689;53.400;12.486;2023-08-07T01:28:57;6.45;;;3.80;;
13244;SDS011;6689;53.400;12.486;2023-08-07T01:31:31;6.18;;;4.05;;
13244;SDS011;6689;53.400;12.486;2023-08-07T01:34:02;7.40;;;4.22;;
13244;SDS011;6689;53.400;12.486;2023-08-07T01:36:33;5.20;;;4.05;;
13244;SDS011;6689;53.400;12.486;2023-08-07T01:39:03;7.43;;;4.30;;
13244;SDS011;6689;53.400;12.486;2023-08-07T01:41:33;8.68;;;4.75;;
13244;SDS011;6689;53.400;12.486;2023-08-07T01:44:03;11.07;;;4.45;;
13244;SDS011;6689;53.400;12.486;2023-08-07T01:46:31;9.60;;;4.82;;
13244;SDS011;6689;53.400;12.486;2023-08-07T01:48:58;7.70;;;5.13;;
13244;SDS011;6689;53.400;12.486;2023-08-07T01:51:25;8.52;;;4.63;;
13244;SDS011;6689;53.400;12.486;2023-08-07T01:53:53;9.60;;;4.75;;
13244;SDS011;6689;53.400;12.486;2023-08-07T01:56:22;9.15;;;4.75;;
13244;SDS011;6689;53.400;12.486;2023-08-07T01:58:50;6.55;;;4.18;;
13244;SDS011;6689;53.400;12.486;2023-08-07T02:01:17;8.48;;;4.40;;
13244;SDS011;6689;53.400;12.486;2023-08-07T02:03:44;5.72;;;3.30;;
13244;SDS011;6689;53.400;12.486;2023-08-07T02:06:12;8.85;;;4.15;;
13244;SDS011;6689;53.400;12.486;2023-08-07T02:08:39;4.80;;;2.80;;
13244;SDS011;6689;53.400;12.486;2023-08-07T02:11:06;5.40;;;2.35;;
13244;SDS011;6689;53.400;12.486;2023-08-07T02:13:37;4.82;;;2.38;;
13244;SDS011;6689;53.400;12.486;2023-08-07T02:16:06;5.95;;;2.63;;
13244;SDS011;6689;53.400;12.486;2023-08-07T02:18:33;3.83;;;3.08;;
13244;SDS011;6689;53.400;12.486;2023-08-07T02:21:01;12.27;;;3.55;;
13244;SDS011;6689;53.400;12.486;2023-08-07T02:23:29;6.20;;;3.50;;
13244;SDS011;6689;53.400;12.486;2023-08-07T02:25:56;10.20;;;4.35;;
13244;SDS011;6689;53.400;12.486;2023-08-07T02:28:24;7.78;;;4.15;;
13244;SDS011;6689;53.400;12.486;2023-08-07T02:30:53;8.43;;;3.88;;
13244;SDS011;6689;53.400;12.486;2023-08-07T02:33:20;7.50;;;3.63;;
13244;SDS011;6689;53.400;12.486;2023-08-07T02:35:48;6.72;;;3.75;;
13244;SDS011;6689;53.400;12.486;2023-08-07T02:38:16;6.25;;;3.80;;
13244;SDS011;6689;53.400;12.486;2023-08-07T02:40:43;8.20;;;4.32;;
13244;SDS011;6689;53.400;12.486;2023-08-07T02:43:11;6.53;;;3.90;;
13244;SDS011;6689;53.400;12.486;2023-08-07T02:45:38;8.88;;;3.63;;
13244;SDS011;6689;53.400;12.486;2023-08-07T02:48:07;6.93;;;3.80;;
13244;SDS011;6689;53.400;12.486;2023-08-07T02:50:35;10.95;;;4.18;;
13244;SDS011;6689;53.400;12.486;2023-08-07T02:53:04;7.15;;;3.72;;
13244;SDS011;6689;53.400;12.486;2023-08-07T02:55:31;7.10;;;3.60;;
13244;SDS011;6689;53.400;12.486;2023-08-07T02:57:59;9.18;;;4.25;;
13244;SDS011;6689;53.400;12.486;2023-08-07T03:00:27;10.55;;;3.65;;
13244;SDS011;6689;53.400;12.486;2023-08-07T03:02:54;8.48;;;4.25;;
13244;SDS011;6689;53.400;12.486;2023-08-07T03:05:24;9.40;;;4.18;;
13244;SDS011;6689;53.400;12.486;2023-08-07T03:07:51;7.00;;;4.03;;
13244;SDS011;6689;53.400;12.486;2023-08-07T03:10:18;5.93;;;4.25;;
13244;SDS011;6689;53.400;12.486;2023-08-07T03:12:46;11.77;;;4.00;;
13244;SDS011;6689;53.400;12.486;2023-08-07T03:15:13;6.95;;;3.13;;
13244;SDS011;6689;53.400;12.486;2023-08-07T03:17:40;6.72;;;3.58;;
13244;SDS011;6689;53.400;12.486;2023-08-07T03:20:08;7.63;;;3.47;;
13244;SDS011;6689;53.400;12.486;2023-08-07T03:22:37;7.97;;;3.58;;
13244;SDS011;6689;53.400;12.486;2023-08-07T03:25:05;7.57;;;3.17;;
13244;SDS011;6689;53.400;12.486;2023-08-07T03:27:33;6.35;;;3.20;;
13244;SDS011;6689;53.400;12.486;2023-08-07T03:30:00;4.82;;;2.75;;
13244;SDS011;6689;53.400;12.486;2023-08-07T03:32:27;8.02;;;3.28;;
13244;SDS011;6689;53.400;12.486;2023-08-07T03:34:54;5.78;;;3.10;;
13244;SDS011;6689;53.400;12.486;2023-08-07T03:37:22;6.63;;;3.35;;
13244;SDS011;6689;53.400;12.486;2023-08-07T03:39:50;5.13;;;3.92;;
13244;SDS011;6689;53.400;12.486;2023-08-07T03:42:17;6.65;;;3.65;;
13244;SDS011;6689;53.400;12.486;2023-08-07T03:44:46;6.30;;;2.95;;
13244;SDS011;6689;53.400;12.486;2023-08-07T03:47:13;5.45;;;2.95;;
13244;SDS011;6689;53.400;12.486;2023-08-07T03:49:40;4.40;;;2.92;;
13244;SDS011;6689;53.400;12.486;2023-08-07T03:52:09;4.38;;;3.40;;
13244;SDS011;6689;53.400;12.486;2023-08-07T03:54:37;6.65;;;3.17;;
13244;SDS011;6689;53.400;12.486;2023-08-07T03:57:06;5.25;;;3.10;;
13244;SDS011;6689;53.400;12.486;2023-08-07T03:59:35;4.65;;;3.35;;
13244;SDS011;6689;53.400;12.486;2023-08-07T04:02:03;8.93;;;3.40;;
13244;SDS011;6689;53.400;12.486;2023-08-07T04:04:32;5.50;;;3.40;;
13244;SDS011;6689;53.400;12.486;2023-08-07T04:07:00;5.50;;;3.35;;
13244;SDS011;6689;53.400;12.486;2023-08-07T04:09:27;5.78;;;2.95;;
13244;SDS011;6689;53.400;12.486;2023-08-07T04:11:54;9.30;;;2.85;;
13244;SDS011;6689;53.400;12.486;2023-08-07T04:14:23;9.45;;;3.10;;
13244;SDS011;6689;53.400;12.486;2023-08-07T04:16:56;7.03;;;2.97;;
13244;SDS011;6689;53.400;12.486;2023-08-07T04:19:25;5.85;;;2.63;;
13244;SDS011;6689;53.400;12.486;2023-08-07T04:21:53;4.32;;;3.00;;
13244;SDS011;6689;53.400;12.486;2023-08-07T04:24:20;9.98;;;3.53;;
13244;SDS011;6689;53.400;12.486;2023-08-07T04:26:48;5.45;;;3.10;;
13244;SDS011;6689;53.400;12.486;2023-08-07T04:29:15;6.95;;;3.30;;
13244;SDS011;6689;53.400;12.486;2023-08-07T04:31:44;4.88;;;3.50;;
13244;SDS011;6689;53.400;12.486;2023-08-07T04:34:11;4.72;;;2.63;;
13244;SDS011;6689;53.400;12.486;2023-08-07T04:36:39;5.97;;;2.97;;
13244;SDS011;6689;53.400;12.486;2023-08-07T04:39:08;4.28;;;2.60;;
13244;SDS011;6689;53.400;12.486;2023-08-07T04:41:35;7.47;;;2.30;;
13244;SDS011;6689;53.400;12.486;2023-08-07T04:44:04;5.22;;;2.88;;
13244;SDS011;6689;53.400;12.486;2023-08-07T04:46:33;6.50;;;2.75;;
13244;SDS011;6689;53.400;12.486;2023-08-07T04:49:03;5.38;;;2.75;;
13244;SDS011;6689;53.400;12.486;2023-08-07T04:51:31;5.50;;;2.65;;
13244;SDS011;6689;53.400;12.486;2023-08-07T04:53:58;3.65;;;2.33;;
13244;SDS011;6689;53.400;12.486;2023-08-07T04:56:26;3.78;;;2.53;;
13244;SDS011;6689;53.400;12.486;2023-08-07T04:58:56;2.80;;;2.25;;
13244;SDS011;6689;53.400;12.486;2023-08-07T05:01:23;4.35;;;2.50;;
13244;SDS011;6689;53.400;12.486;2023-08-07T05:03:50;7.75;;;2.92;;
13244;SDS011;6689;53.400;12.486;2023-08-07T05:06:19;6.97;;;2.22;;
13244;SDS011;6689;53.400;12.486;2023-08-07T05:08:48;7.05;;;2.10;;
13244;SDS011;6689;53.400;12.486;2023-08-07T05:11:17;3.72;;;2.13;;
13244;SDS011;6689;53.400;12.486;2023-08-07T05:13:45;5.75;;;2.20;;
13244;SDS011;6689;53.400;12.486;2023-08-07T05:16:12;4.38;;;2.20;;
13244;SDS011;6689;53.400;12.486;2023-08-07T05:18:40;6.10;;;2.50;;
13244;SDS011;6689;53.400;12.486;2023-08-07T05:21:07;5.93;;;2.22;;
13244;SDS011;6689;53.400;12.486;2023-08-07T05:23:36;3.15;;;2.15;;
13244;SDS011;6689;53.400;12.486;2023-08-07T05:26:05;3.08;;;2.15;;
13244;SDS011;6689;53.400;12.486;2023-08-07T05:28:32;4.50;;;2.35;;
13244;SDS011;6689;53.400;12.486;2023-08-07T05:31:00;2.83;;;1.90;;
13244;SDS011;6689;53.400;12.486;2023-08-07T05:33:27;2.45;;;1.77;;
13244;SDS011;6689;53.400;12.486;2023-08-07T05:35:54;3.55;;;2.08;;
13244;SDS011;6689;53.400;12.486;2023-08-07T05:38:22;4.70;;;1.90;;
13244;SDS011;6689;53.400;12.486;2023-08-07T05:40:53;4.47;;;2.15;;
13244;SDS011;6689;53.400;12.486;2023-08-07T05:43:23;2.85;;;1.73;;
13244;SDS011;6689;53.400;12.486;2023-08-07T05:45:50;2.78;;;2.00;;
13244;SDS011;6689;53.400;12.486;2023-08-07T05:48:18;6.20;;;2.03;;
13244;SDS011;6689;53.400;12.486;2023-08-07T05:50:45;5.32;;;1.85;;
13244;SDS011;6689;53.400;12.486;2023-08-07T05:53:14;2.67;;;1.65;;
13244;SDS011;6689;53.400;12.486;2023-08-07T05:55:43;4.72;;;1.98;;
13244;SDS011;6689;53.400;12.486;2023-08-07T05:58:12;3.83;;;1.80;;
13244;SDS011;6689;53.400;12.486;2023-08-07T06:00:40;4.43;;;1.85;;
13244;SDS011;6689;53.400;12.486;2023-08-07T06:03:07;2.67;;;1.65;;
13244;SDS011;6689;53.400;12.486;2023-08-07T06:05:38;4.15;;;1.98;;
13244;SDS011;6689;53.400;12.486;2023-08-07T06:08:06;1.90;;;1.52;;
13244;SDS011;6689;53.400;12.486;2023-08-07T06:10:33;5.05;;;2.50;;
13244;SDS011;6689;53.400;12.486;2023-08-07T06:13:01;3.20;;;1.92;;
13244;SDS011;6689;53.400;12.486;2023-08-07T06:15:30;3.45;;;1.80;;
13244;SDS011;6689;53.400;12.486;2023-08-07T06:18:00;5.30;;;1.55;;
13244;SDS011;6689;53.400;12.486;2023-08-07T06:20:29;3.88;;;1.90;;
13244;SDS011;6689;53.400;12.486;2023-08-07T06:22:56;4.47;;;1.98;;
13244;SDS011;6689;53.400;12.486;2023-08-07T06:25:23;3.63;;;1.98;;
13244;SDS011;6689;53.400;12.486;2023-08-07T06:27:51;3.97;;;1.88;;
13244;SDS011;6689;53.400;12.486;2023-08-07T06:30:18;3.30;;;1.75;;
13244;SDS011;6689;53.400;12.486;2023-08-07T06:32:47;3.38;;;1.80;;
13244;SDS011;6689;53.400;12.486;2023-08-07T06:35:14;2.55;;;1.58;;
13244;SDS011;6689;53.400;12.486;2023-08-07T06:37:42;6.63;;;2.10;;
13244;SDS011;6689;53.400;12.486;2023-08-07T06:40:11;3.15;;;1.80;;
13244;SDS011;6689;53.400;12.486;2023-08-07T06:42:38;3.65;;;1.75;;
13244;SDS011;6689;53.400;12.486;2023-08-07T06:45:06;2.60;;;1.65;;
13244;SDS011;6689;53.400;12.486;2023-08-07T06:47:34;4.22;;;1.80;;
13244;SDS011;6689;53.400;12.486;2023-08-07T06:50:02;2.75;;;1.73;;
13244;SDS011;6689;53.400;12.486;2023-08-07T06:52:30;6.40;;;2.00;;
13244;SDS011;6689;53.400;12.486;2023-08-07T06:54:57;3.15;;;2.08;;
13244;SDS011;6689;53.400;12.486;2023-08-07T06:57:24;4.63;;;1.80;;
13244;SDS011;6689;53.400;12.486;2023-08-07T06:59:55;4.38;;;1.90;;
13244;SDS011;6689;53.400;12.486;2023-08-07T07:02:22;5.25;;;2.00;;
13244;SDS011;6689;53.400;12.486;2023-08-07T07:04:50;3.80;;;1.80;;
13244;SDS011;6689;53.400;12.486;2023-08-07T07:07:19;5.05;;;2.00;;
13244;SDS011;6689;53.400;12.486;2023-08-07T07:09:49;6.43;;;2.15;;
13244;SDS011;6689;53.400;12.486;2023-08-07T07:12:16;5.47;;;2.22;;
13244;SDS011;6689;53.400;12.486;2023-08-07T07:14:43;4.45;;;2.20;;
13244;SDS011;6689;53.400;12.486;2023-08-07T07:17:11;6.28;;;2.42;;
13244;SDS011;6689;53.400;12.486;2023-08-07T07:19:38;3.97;;;2.30;;
13244;SDS011;6689;53.400;12.486;2023-08-07T07:22:09;5.65;;;1.70;;
13244;SDS011;6689;53.400;12.486;2023-08-07T07:24:38;4.38;;;2.17;;
13244;SDS011;6689;53.400;12.486;2023-08-07T07:27:07;6.55;;;2.13;;
13244;SDS011;6689;53.400;12.486;2023-08-07T07:29:34;7.82;;;1.95;;
13244;SDS011;6689;53.400;12.486;2023-08-07T07:32:02;3.97;;;1.67;;
13244;SDS011;6689;53.400;12.486;2023-08-07T07:34:29;5.03;;;2.22;;
13244;SDS011;6689;53.400;12.486;2023-08-07T07:36:58;4.93;;;2.50;;
13244;SDS011;6689;53.400;12.486;2023-08-07T07:39:25;9.30;;;2.35;;
13244;SDS011;6689;53.400;12.486;2023-08-07T07:41:54;5.88;;;2.28;;
13244;SDS011;6689;53.400;12.486;2023-08-07T07:44:21;5.78;;;2.10;;
13244;SDS011;6689;53.400;12.486;2023-08-07T07:46:49;12.07;;;2.42;;
13244;SDS011;6689;53.400;12.486;2023-08-07T07:49:17;4.95;;;2.15;;
13244;SDS011;6689;53.400;12.486;2023-08-07T07:51:44;5.90;;;2.75;;
13244;SDS011;6689;53.400;12.486;2023-08-07T07:54:11;5.50;;;1.63;;
13244;SDS011;6689;53.400;12.486;2023-08-07T07:56:39;7.95;;;2.55;;
13244;SDS011;6689;53.400;12.486;2023-08-07T07:59:08;5.40;;;2.20;;
13244;SDS011;6689;53.400;12.486;2023-08-07T08:01:35;5.50;;;2.20;;
13244;SDS011;6689;53.400;12.486;2023-08-07T08:04:03;6.40;;;2.00;;
13244;SDS011;6689;53.400;12.486;2023-08-07T08:06:31;5.75;;;2.47;;
13244;SDS011;6689;53.400;12.486;2023-08-07T08:08:58;4.75;;;1.90;;
13244;SDS011;6689;53.400;12.486;2023-08-07T08:11:30;7.88;;;2.40;;
13244;SDS011;6689;53.400;12.486;2023-08-07T08:13:59;7.50;;;2.13;;
13244;SDS011;6689;53.400;12.486;2023-08-07T08:16:28;13.80;;;3.05;;
13244;SDS011;6689;53.400;12.486;2023-08-07T08:18:55;3.80;;;1.83;;
13244;SDS011;6689;53.400;12.486;2023-08-07T08:21:22;6.10;;;2.13;;
13244;SDS011;6689;53.400;12.486;2023-08-07T08:23:50;8.63;;;2.50;;
13244;SDS011;6689;53.400;12.486;2023-08-07T08:26:17;6.10;;;2.38;;
13244;SDS011;6689;53.400;12.486;2023-08-07T08:28:45;6.68;;;2.40;;
13244;SDS011;6689;53.400;12.486;2023-08-07T08:31:12;11.45;;;2.33;;
13244;SDS011;6689;53.400;12.486;2023-08-07T08:33:41;5.53;;;1.98;;
13244;SDS011;6689;53.400;12.486;2023-08-07T08:36:10;4.95;;;2.28;;
13244;SDS011;6689;53.400;12.486;2023-08-07T08:38:38;9.75;;;3.00;;
13244;SDS011;6689;53.400;12.486;2023-08-07T08:41:10;8.63;;;2.80;;
13244;SDS011;6689;53.400;12.486;2023-08-07T08:43:38;10.23;;;2.60;;
13244;SDS011;6689;53.400;12.486;2023-08-07T08:46:08;7.47;;;2.90;;
13244;SDS011;6689;53.400;12.486;2023-08-07T08:48:38;6.25;;;2.42;;
13244;SDS011;6689;53.400;12.486;2023-08-07T08:51:08;6.25;;;2.10;;
13244;SDS011;6689;53.400;12.486;2023-08-07T08:53:38;9.25;;;2.75;;
13244;SDS011;6689;53.400;12.486;2023-08-07T08:56:05;10.40;;;2.47;;
13244;SDS011;6689;53.400;12.486;2023-08-07T08:58:33;6.35;;;2.53;;
13244;SDS011;6689;53.400;12.486;2023-08-07T09:01:01;5.38;;;2.45;;
13244;SDS011;6689;53.400;12.486;2023-08-07T09:03:29;7.15;;;2.53;;
13244;SDS011;6689;53.400;12.486;2023-08-07T09:05:59;10.75;;;3.20;;
13244;SDS011;6689;53.400;12.486;2023-08-07T09:08:27;9.18;;;2.50;;
13244;SDS011;6689;53.400;12.486;2023-08-07T09:10:58;10.05;;;2.17;;
13244;SDS011;6689;53.400;12.486;2023-08-07T09:13:26;11.23;;;2.53;;
13244;SDS011;6689;53.400;12.486;2023-08-07T09:15:55;4.93;;;2.53;;
13244;SDS011;6689;53.400;12.486;2023-08-07T09:18:24;13.20;;;3.03;;
13244;SDS011;6689;53.400;12.486;2023-08-07T09:20:51;12.85;;;3.33;;
13244;SDS011;6689;53.400;12.486;2023-08-07T09:23:24;7.18;;;3.08;;
13244;SDS011;6689;53.400;12.486;2023-08-07T09:25:58;11.52;;;2.78;;
13244;SDS011;6689;53.400;12.486;2023-08-07T09:28:26;11.02;;;3.13;;
13244;SDS011;6689;53.400;12.486;2023-08-07T09:30:55;8.07;;;3.60;;
13244;SDS011;6689;53.400;12.486;2023-08-07T09:33:24;9.63;;;2.92;;
13244;SDS011;6689;53.400;12.486;2023-08-07T09:35:53;11.23;;;3.00;;
13244;SDS011;6689;53.400;12.486;2023-08-07T09:38:26;14.27;;;2.95;;
13244;SDS011;6689;53.400;12.486;2023-08-07T09:40:57;11.52;;;3.08;;
13244;SDS011;6689;53.400;12.486;2023-08-07T09:43:25;7.85;;;2.67;;
13244;SDS011;6689;53.400;12.486;2023-08-07T09:45:52;6.65;;;3.20;;
13244;SDS011;6689;53.400;12.486;2023-08-07T09:48:28;9.27;;;3.30;;
13244;SDS011;6689;53.400;12.486;2023-08-07T09:50:55;8.63;;;3.28;;
13244;SDS011;6689;53.400;12.486;2023-08-07T09:53:28;9.68;;;3.13;;
13244;SDS011;6689;53.400;12.486;2023-08-07T09:55:56;10.15;;;3.15;;
13244;SDS011;6689;53.400;12.486;2023-08-07T09:58:24;10.93;;;2.92;;
13244;SDS011;6689;53.400;12.486;2023-08-07T10:00:52;7.97;;;2.78;;
13244;SDS011;6689;53.400;12.486;2023-08-07T10:03:21;8.02;;;3.40;;
13244;SDS011;6689;53.400;12.486;2023-08-07T10:05:49;12.20;;;3.20;;
13244;SDS011;6689;53.400;12.486;2023-08-07T10:08:17;7.10;;;2.95;;
13244;SDS011;6689;53.400;12.486;2023-08-07T10:10:49;9.10;;;2.78;;
13244;SDS011;6689;53.400;12.486;2023-08-07T10:13:16;5.85;;;2.80;;
13244;SDS011;6689;53.400;12.486;2023-08-07T10:15:45;8.05;;;2.90;;
13244;SDS011;6689;53.400;12.486;2023-08-07T10:18:13;8.15;;;2.55;;
13244;SDS011;6689;53.400;12.486;2023-08-07T10:20:43;7.63;;;2.75;;
13244;SDS011;6689;53.400;12.486;2023-08-07T10:23:12;13.23;;;3.47;;
13244;SDS011;6689;53.400;12.486;2023-08-07T10:25:46;10.75;;;2.70;;
13244;SDS011;6689;53.400;12.486;2023-08-07T10:28:17;7.40;;;2.97;;
13244;SDS011;6689;53.400;12.486;2023-08-07T10:30:46;8.63;;;2.80;;
13244;SDS011;6689;53.400;12.486;2023-08-07T10:33:14;14.63;;;2.95;;
13244;SDS011;6689;53.400;12.486;2023-08-07T10:35:45;11.98;;;3.40;;
13244;SDS011;6689;53.400;12.486;2023-08-07T10:38:14;8.50;;;3.50;;
13244;SDS011;6689;53.400;12.486;2023-08-07T10:43:39;7.53;;;2.80;;
13244;SDS011;6689;53.400;12.486;2023-08-07T10:46:10;11.40;;;3.33;;
13244;SDS011;6689;53.400;12.486;2023-08-07T10:48:39;7.75;;;2.72;;
13244;SDS011;6689;53.400;12.486;2023-08-07T10:51:09;12.00;;;3.08;;
13244;SDS011;6689;53.400;12.486;2023-08-07T10:53:41;11.52;;;3.42;;
13244;SDS011;6689;53.400;12.486;2023-08-07T10:56:15;9.00;;;3.30;;
13244;SDS011;6689;53.400;12.486;2023-08-07T10:58:47;9.68;;;2.92;;
13244;SDS011;6689;53.400;12.486;2023-08-07T11:01:18;10.20;;;3.47;;
13244;SDS011;6689;53.400;12.486;2023-08-07T11:04:05;8.80;;;3.47;;
13244;SDS011;6689;53.400;12.486;2023-08-07T11:06:34;7.72;;;3.33;;
13244;SDS011;6689;53.400;12.486;2023-08-07T11:09:02;10.50;;;3.30;;
13244;SDS011;6689;53.400;12.486;2023-08-07T11:11:36;7.95;;;3.00;;
13244;SDS011;6689;53.400;12.486;2023-08-07T11:14:05;11.63;;;3.42;;
13244;SDS011;6689;53.400;12.486;2023-08-07T11:16:34;6.53;;;3.03;;
13244;SDS011;6689;53.400;12.486;2023-08-07T11:19:01;11.52;;;3.35;;
13244;SDS011;6689;53.400;12.486;2023-08-07T11:21:30;19.75;;;3.22;;
13244;SDS011;6689;53.400;12.486;2023-08-07T11:23:58;8.60;;;3.30;;
13244;SDS011;6689;53.400;12.486;2023-08-07T11:26:26;5.53;;;2.63;;
13244;SDS011;6689;53.400;12.486;2023-08-07T11:28:55;8.13;;;3.38;;
13244;SDS011;6689;53.400;12.486;2023-08-07T11:31:24;6.28;;;3.10;;
13244;SDS011;6689;53.400;12.486;2023-08-07T11:33:53;4.78;;;2.15;;
13244;SDS011;6689;53.400;12.486;2023-08-07T11:36:22;10.10;;;3.15;;
13244;SDS011;6689;53.400;12.486;2023-08-07T11:38:51;12.30;;;2.60;;
13244;SDS011;6689;53.400;12.486;2023-08-07T11:41:18;8.82;;;2.70;;
13244;SDS011;6689;53.400;12.486;2023-08-07T11:43:46;9.13;;;2.65;;
13244;SDS011;6689;53.400;12.486;2023-08-07T11:46:15;11.32;;;2.78;;
13244;SDS011;6689;53.400;12.486;2023-08-07T11:48:43;9.13;;;3.08;;
13244;SDS011;6689;53.400;12.486;2023-08-07T11:51:10;13.25;;;3.35;;
13244;SDS011;6689;53.400;12.486;2023-08-07T11:53:38;13.07;;;3.13;;
13244;SDS011;6689;53.400;12.486;2023-08-07T11:56:07;9.38;;;2.80;;
13244;SDS011;6689;53.400;12.486;2023-08-07T11:58:36;5.75;;;2.58;;
13244;SDS011;6689;53.400;12.486;2023-08-07T12:01:04;8.13;;;2.88;;
13244;SDS011;6689;53.400;12.486;2023-08-07T12:03:34;10.13;;;2.65;;
13244;SDS011;6689;53.400;12.486;2023-08-07T12:06:05;8.90;;;2.63;;
13244;SDS011;6689;53.400;12.486;2023-08-07T12:08:33;8.48;;;2.42;;
13244;SDS011;6689;53.400;12.486;2023-08-07T12:11:02;7.28;;;2.33;;
13244;SDS011;6689;53.400;12.486;2023-08-07T12:13:32;11.65;;;3.00;;
13244;SDS011;6689;53.400;12.486;2023-08-07T12:16:00;7.55;;;3.35;;
13244;SDS011;6689;53.400;12.486;2023-08-07T12:18:30;7.05;;;2.85;;
13244;SDS011;6689;53.400;12.486;2023-08-07T12:20:59;10.52;;;3.10;;
13244;SDS011;6689;53.400;12.486;2023-08-07T12:23:27;8.85;;;2.25;;
13244;SDS011;6689;53.400;12.486;2023-08-07T12:25:55;21.75;;;3.40;;
13244;SDS011;6689;53.400;12.486;2023-08-07T12:28:22;7.88;;;3.42;;
13244;SDS011;6689;53.400;12.486;2023-08-07T12:30:50;11.32;;;2.78;;
13244;SDS011;6689;53.400;12.486;2023-08-07T12:33:18;8.32;;;3.10;;
13244;SDS011;6689;53.400;12.486;2023-08-07T12:35:46;7.25;;;2.58;;
13244;SDS011;6689;53.400;12.486;2023-08-07T12:38:15;10.00;;;3.10;;
13244;SDS011;6689;53.400;12.486;2023-08-07T12:40:42;13.55;;;2.70;;
13244;SDS011;6689;53.400;12.486;2023-08-07T12:43:10;8.05;;;3.15;;
13244;SDS011;6689;53.400;12.486;2023-08-07T12:45:40;10.43;;;3.10;;
13244;SDS011;6689;53.400;12.486;2023-08-07T12:48:07;8.57;;;3.33;;
13244;SDS011;6689;53.400;12.486;2023-08-07T12:50:35;11.85;;;3.03;;
13244;SDS011;6689;53.400;12.486;2023-08-07T12:53:02;8.07;;;3.38;;
13244;SDS011;6689;53.400;12.486;2023-08-07T12:55:31;10.90;;;3.03;;
13244;SDS011;6689;53.400;12.486;2023-08-07T12:57:59;8.88;;;3.25;;
13244;SDS011;6689;53.400;12.486;2023-08-07T13:00:26;10.75;;;3.33;;
13244;SDS011;6689;53.400;12.486;2023-08-07T13:02:53;12.50;;;3.30;;
13244;SDS011;6689;53.400;12.486;2023-08-07T13:05:21;11.65;;;3.22;;
13244;SDS011;6689;53.400;12.486;2023-08-07T13:07:51;8.38;;;2.85;;
13244;SDS011;6689;53.400;12.486;2023-08-07T13:10:20;9.20;;;2.83;;
13244;SDS011;6689;53.400;12.486;2023-08-07T13:12:51;12.00;;;2.92;;
13244;SDS011;6689;53.400;12.486;2023-08-07T13:15:18;10.25;;;2.58;;
13244;SDS011;6689;53.400;12.486;2023-08-07T13:17:46;7.20;;;2.50;;
13244;SDS011;6689;53.400;12.486;2023-08-07T13:20:13;9.15;;;2.53;;
13244;SDS011;6689;53.400;12.486;2023-08-07T13:22:41;8.18;;;2.33;;
13244;SDS011;6689;53.400;12.486;2023-08-07T13:25:12;19.17;;;3.58;;
13244;SDS011;6689;53.400;12.486;2023-08-07T13:27:41;8.90;;;2.58;;
13244;SDS011;6689;53.400;12.486;2023-08-07T13:30:10;6.70;;;2.08;;
13244;SDS011;6689;53.400;12.486;2023-08-07T13:32:38;9.90;;;2.45;;
13244;SDS011;6689;53.400;12.486;2023-08-07T13:35:05;9.77;;;3.17;;
13244;SDS011;6689;53.400;12.486;2023-08-07T13:37:34;8.55;;;2.83;;
13244;SDS011;6689;53.400;12.486;2023-08-07T13:40:03;11.43;;;2.65;;
13244;SDS011;6689;53.400;12.486;2023-08-07T13:42:32;7.78;;;3.10;;
13244;SDS011;6689;53.400;12.486;2023-08-07T13:45:00;15.63;;;2.88;;
13244;SDS011;6689;53.400;12.486;2023-08-07T13:47:28;7.78;;;2.15;;
13244;SDS011;6689;53.400;12.486;2023-08-07T13:49:56;6.55;;;2.35;;
13244;SDS011;6689;53.400;12.486;2023-08-07T13:52:24;8.52;;;2.30;;
13244;SDS011;6689;53.400;12.486;2023-08-07T13:54:51;7.28;;;1.65;;
13244;SDS011;6689;53.400;12.486;2023-08-07T13:57:18;8.82;;;2.50;;
13244;SDS011;6689;53.400;12.486;2023-08-07T13:59:46;10.73;;;2.22;;
13244;SDS011;6689;53.400;12.486;2023-08-07T14:02:13;4.78;;;2.25;;
13244;SDS011;6689;53.400;12.486;2023-08-07T14:04:42;7.28;;;3.15;;
13244;SDS011;6689;53.400;12.486;2023-08-07T14:07:10;16.60;;;2.35;;
13244;SDS011;6689;53.400;12.486;2023-08-07T14:09:39;8.23;;;2.22;;
13244;SDS011;6689;53.400;12.486;2023-08-07T14:12:07;7.20;;;2.80;;
13244;SDS011;6689;53.400;12.486;2023-08-07T14:14:35;11.98;;;2.30;;
13244;SDS011;6689;53.400;12.486;2023-08-07T14:17:02;7.35;;;1.77;;
13244;SDS011;6689;53.400;12.486;2023-08-07T14:19:31;7.32;;;2.78;;
13244;SDS011;6689;53.400;12.486;2023-08-07T14:22:00;9.85;;;2.35;;
13244;SDS011;6689;53.400;12.486;2023-08-07T14:24:27;15.35;;;2.47;;
13244;SDS011;6689;53.400;12.486;2023-08-07T14:26:54;17.42;;;3.92;;
13244;SDS011;6689;53.400;12.486;2023-08-07T14:29:22;12.13;;;2.65;;
13244;SDS011;6689;53.400;12.486;2023-08-07T14:31:49;21.80;;;3.08;;
13244;SDS011;6689;53.400;12.486;2023-08-07T14:34:17;8.15;;;2.45;;
13244;SDS011;6689;53.400;12.486;2023-08-07T14:36:44;23.92;;;3.78;;
13244;SDS011;6689;53.400;12.486;2023-08-07T14:39:13;11.27;;;2.92;;
13244;SDS011;6689;53.400;12.486;2023-08-07T14:41:43;7.05;;;2.00;;
13244;SDS011;6689;53.400;12.486;2023-08-07T14:44:10;7.80;;;2.42;;
13244;SDS011;6689;53.400;12.486;2023-08-07T14:46:37;8.95;;;2.08;;
13244;SDS011;6689;53.400;12.486;2023-08-07T14:49:04;10.75;;;2.10;;
13244;SDS011;6689;53.400;12.486;2023-08-07T14:51:33;10.43;;;1.88;;
13244;SDS011;6689;53.400;12.486;2023-08-07T14:54:01;9.30;;;1.83;;
13244;SDS011;6689;53.400;12.486;2023-08-07T14:56:30;5.30;;;1.63;;